Four Marks, United Kingdom
Current Conditions -  °F | °C
As of 5:50 AM on Saturday 20 Dec 2014 (Local Time) from EGVO Reporting Station
Broken Clouds Broken Clouds  
Wind Chill: 36°   Ceiling: 4700
Heat Index: 43°   Visibility: 6mi
Dew Point: 36°   Wind: 13mph
Humidity: 76%   Direction: 240°WSW
Pressure: 30.24"   Gusts: NA
Location:  51.11°N, 1.05°W
Report Text: EGVO 200550Z 24011KT 9999 FEW030 BKN047 06/02 Q1024 BLU
Loading
Personal Weather Stations






























Interactive Weather Map New forecast layout! Learn more

10-Day Weather Forecast

Advertisements
Track Severe Weather on mobile